createdAt,value
2022-08-18T00:01:25.288Z,78.51
2022-08-18T00:03:56.432Z,79.11
2022-08-18T00:06:30.923Z,78.51
2022-08-18T00:09:01.649Z,78.59
2022-08-18T00:11:41.082Z,78.70
2022-08-18T00:14:22.660Z,78.81
2022-08-18T00:16:54.935Z,79.14
2022-08-18T00:19:45.582Z,79.19
2022-08-18T00:22:16.106Z,80.49
2022-08-18T00:24:49.402Z,80.49
2022-08-18T00:27:28.254Z,80.40
2022-08-18T00:30:00.698Z,80.57
2022-08-18T00:32:37.611Z,80.51
2022-08-18T00:35:13.732Z,80.92
2022-08-18T00:37:42.945Z,80.82
2022-08-18T00:40:22.245Z,81.06
2022-08-18T00:42:55.576Z,80.88
2022-08-18T00:45:33.063Z,80.74
2022-08-18T00:48:00.926Z,80.83
2022-08-18T00:50:53.643Z,80.82
2022-08-18T00:53:50.504Z,80.75
2022-08-18T00:56:30.594Z,80.99
2022-08-18T00:59:26.700Z,80.65
2022-08-18T01:02:02.974Z,80.94
2022-08-18T01:04:53.533Z,80.82
2022-08-18T01:07:30.301Z,80.63
2022-08-18T01:10:01.510Z,80.64
2022-08-18T01:12:44.877Z,80.40
2022-08-18T01:15:29.621Z,80.59
2022-08-18T01:18:29.216Z,80.34
2022-08-18T01:21:43.927Z,80.37
2022-08-18T01:24:14.177Z,80.65
2022-08-18T01:26:50.624Z,80.83
2022-08-18T01:29:20.118Z,81.69
2022-08-18T01:31:55.539Z,81.31
2022-08-18T01:34:27.655Z,81.67
2022-08-18T01:36:56.201Z,82.02
2022-08-18T01:41:11.212Z,82.57
2022-08-18T01:42:16.930Z,83.19
2022-08-18T01:44:46.236Z,83.46
2022-08-18T01:47:14.216Z,83.82
2022-08-18T01:49:43.275Z,83.60
2022-08-18T01:52:16.058Z,83.55
2022-08-18T01:54:43.404Z,83.62
2022-08-18T01:57:13.526Z,83.95
2022-08-18T01:59:42.825Z,85.65
2022-08-18T02:02:22.636Z,86.78
2022-08-18T02:05:02.022Z,86.93
2022-08-18T02:07:36.081Z,87.28
2022-08-18T02:10:12.155Z,86.72
2022-08-18T02:12:41.792Z,86.87
2022-08-18T02:15:11.925Z,87.43
2022-08-18T02:17:41.830Z,87.85
2022-08-18T02:20:15.220Z,88.07
2022-08-18T02:22:43.786Z,88.12
2022-08-18T02:25:12.795Z,88.05
2022-08-18T02:27:40.416Z,87.37
2022-08-18T02:30:13.049Z,87.08
2022-08-18T02:32:41.133Z,87.07
2022-08-18T02:35:11.965Z,86.89
2022-08-18T02:37:42.207Z,86.80
2022-08-18T02:40:15.447Z,86.24
2022-08-18T02:42:44.666Z,86.44
2022-08-18T02:45:13.626Z,86.34
2022-08-18T02:47:49.205Z,86.42
2022-08-18T02:50:16.877Z,86.04
2022-08-18T02:52:44.158Z,86.23
2022-08-18T02:55:12.460Z,86.04
2022-08-18T02:57:47.835Z,85.97
2022-08-18T03:00:18.980Z,85.89
2022-08-18T03:02:51.540Z,85.66
2022-08-18T03:05:20.299Z,85.72
2022-08-18T03:07:47.856Z,85.90
2022-08-18T03:10:33.069Z,85.90
2022-08-18T03:13:02.364Z,86.56
2022-08-18T03:15:29.835Z,87.04
2022-08-18T03:17:58.340Z,86.39
2022-08-18T03:20:30.718Z,86.53
2022-08-18T03:22:59.764Z,86.64
2022-08-18T03:25:33.580Z,86.11
2022-08-18T03:28:03.866Z,86.19
2022-08-18T03:30:31.114Z,86.66
2022-08-18T03:32:58.530Z,86.95
2022-08-18T03:35:25.962Z,87.10
2022-08-18T03:37:53.822Z,86.90
2022-08-18T03:40:21.414Z,86.45
2022-08-18T03:42:48.647Z,86.11
2022-08-18T03:45:17.989Z,86.47
2022-08-18T03:47:46.242Z,86.25
2022-08-18T03:50:14.210Z,85.68
2022-08-18T03:52:41.948Z,85.97
2022-08-18T03:55:09.902Z,85.76
2022-08-18T03:57:38.897Z,86.02
2022-08-18T04:00:09.750Z,85.75
2022-08-18T04:02:37.207Z,85.80
2022-08-18T04:05:05.606Z,85.54
2022-08-18T04:07:33.027Z,85.45
2022-08-18T04:10:00.557Z,85.13
2022-08-18T04:12:27.964Z,85.13
2022-08-18T04:14:55.161Z,85.05
2022-08-18T04:17:25.698Z,84.97
2022-08-18T04:19:55.164Z,84.52
2022-08-18T04:22:23.685Z,84.75
2022-08-18T04:24:51.283Z,84.34
2022-08-18T04:27:21.248Z,84.42
2022-08-18T04:29:49.129Z,84.60
2022-08-18T04:32:16.617Z,85.25
2022-08-18T04:34:44.522Z,85.07
2022-08-18T04:37:12.085Z,85.62
2022-08-18T04:39:39.793Z,85.50
2022-08-18T04:42:07.772Z,85.31
2022-08-18T04:44:38.091Z,85.08
2022-08-18T04:47:09.214Z,85.55
2022-08-18T04:49:37.675Z,85.23
2022-08-18T04:52:40.192Z,85.12
2022-08-18T04:55:10.973Z,85.41
2022-08-18T04:57:39.476Z,85.16
2022-08-18T05:00:08.773Z,85.14
2022-08-18T05:02:36.332Z,84.84
2022-08-18T05:05:05.190Z,84.99
2022-08-18T05:07:33.052Z,84.79
2022-08-18T05:10:00.509Z,84.64
2022-08-18T05:12:28.454Z,84.28
2022-08-18T05:14:58.981Z,84.28
2022-08-18T05:17:30.566Z,83.95
2022-08-18T05:20:01.734Z,83.73
2022-08-18T05:22:31.785Z,83.53
2022-08-18T05:25:00.575Z,83.34
2022-08-18T05:27:36.095Z,83.18
2022-08-18T05:30:07.532Z,83.01
2022-08-18T05:32:50.005Z,83.01
2022-08-18T05:35:31.198Z,82.78
2022-08-18T05:38:33.166Z,82.91
2022-08-18T05:41:25.913Z,82.90
2022-08-18T05:43:53.326Z,82.81
2022-08-18T05:46:52.615Z,82.67
2022-08-18T05:49:21.328Z,82.70
2022-08-18T05:51:57.095Z,82.97
2022-08-18T05:54:46.245Z,82.61
2022-08-18T05:57:21.861Z,82.30
2022-08-18T05:59:54.042Z,82.60
2022-08-18T06:02:33.910Z,82.14
2022-08-18T06:05:11.807Z,82.20
2022-08-18T06:07:55.558Z,81.47
2022-08-18T06:10:23.656Z,80.90
2022-08-18T06:12:58.907Z,81.00
2022-08-18T06:15:49.044Z,80.11
2022-08-18T06:18:43.194Z,79.76
2022-08-18T06:21:42.740Z,79.81
2022-08-18T06:24:25.564Z,79.30
2022-08-18T06:27:10.823Z,78.76
2022-08-18T06:30:18.686Z,78.69
2022-08-18T06:33:32.591Z,78.29
2022-08-18T06:36:34.285Z,77.70
2022-08-18T06:39:26.912Z,77.31
2022-08-18T06:41:55.370Z,75.42
2022-08-18T06:44:50.625Z,70.61
2022-08-18T06:47:29.876Z,67.39
2022-08-18T06:50:23.205Z,62.45
2022-08-18T06:53:07.587Z,59.30
2022-08-18T06:55:55.725Z,61.53
2022-08-18T06:58:30.785Z,63.70
2022-08-18T07:01:07.193Z,63.51
2022-08-18T07:03:37.962Z,63.50
2022-08-18T07:06:08.928Z,62.98
2022-08-18T07:08:41.452Z,63.92
2022-08-18T07:11:30.068Z,64.03
2022-08-18T07:14:16.367Z,64.27
2022-08-18T07:16:58.307Z,64.34
2022-08-18T07:19:30.732Z,64.54
2022-08-18T07:22:18.062Z,64.05
2022-08-18T07:24:51.682Z,63.64
2022-08-18T07:27:49.422Z,63.44
2022-08-18T07:30:37.059Z,63.78
2022-08-18T07:33:22.669Z,63.45
2022-08-18T07:36:03.368Z,62.98
2022-08-18T07:38:43.992Z,63.06
2022-08-18T07:41:28.085Z,62.63
2022-08-18T07:44:23.908Z,61.94
2022-08-18T07:47:07.035Z,60.45
2022-08-18T07:49:37.071Z,60.26
2022-08-18T07:52:36.185Z,59.43
2022-08-18T07:55:35.790Z,58.10
2022-08-18T07:58:36.629Z,56.86
2022-08-18T08:01:25.979Z,56.30
2022-08-18T08:04:24.980Z,56.13
2022-08-18T08:07:24.876Z,55.21
2022-08-18T08:10:22.610Z,54.13
2022-08-18T08:13:51.775Z,53.81
2022-08-18T08:16:40.761Z,53.04
2022-08-18T08:19:59.560Z,52.00
2022-08-18T08:22:59.691Z,51.49
2022-08-18T08:26:24.750Z,50.57
2022-08-18T08:29:14.021Z,50.17
2022-08-18T08:32:01.779Z,49.40
2022-08-18T08:34:50.559Z,49.30
2022-08-18T08:38:04.827Z,47.80
2022-08-18T08:41:00.620Z,47.13
2022-08-18T08:43:40.038Z,47.13
2022-08-18T08:46:23.781Z,46.28
2022-08-18T08:49:01.462Z,45.41
2022-08-18T08:51:46.606Z,44.69
2022-08-18T08:54:29.777Z,43.93
2022-08-18T08:57:01.860Z,42.30
2022-08-18T08:59:29.155Z,42.05
2022-08-18T09:02:49.402Z,41.11
2022-08-18T09:05:28.880Z,41.23
2022-08-18T09:08:24.771Z,39.58
2022-08-18T09:10:55.210Z,39.25
2022-08-18T09:13:29.258Z,36.18
2022-08-18T09:16:24.316Z,28.98
2022-08-18T09:19:41.075Z,22.41
2022-08-18T09:22:36.711Z,18.22
2022-08-18T09:25:29.434Z,16.25
2022-08-18T09:28:20.395Z,14.53
2022-08-18T09:31:03.207Z,13.13
2022-08-18T09:33:48.535Z,12.00
2022-08-18T09:36:41.004Z,11.41
2022-08-18T09:43:12.116Z,10.01
2022-08-18T09:46:00.990Z,8.96
2022-08-18T09:48:36.983Z,8.71
2022-08-18T09:51:17.496Z,8.32
2022-08-18T09:53:53.971Z,8.26
2022-08-18T09:56:54.234Z,8.21
2022-08-18T09:59:35.040Z,7.78
2022-08-18T10:02:32.161Z,7.68
2022-08-18T10:05:17.584Z,7.35
2022-08-18T10:08:06.192Z,6.50
2022-08-18T10:11:09.277Z,6.70
2022-08-18T10:13:49.871Z,5.25
2022-08-18T10:17:24.727Z,5.55
2022-08-18T10:20:25.928Z,5.30
2022-08-18T10:22:57.383Z,4.56
2022-08-18T10:25:52.957Z,5.66
2022-08-18T10:28:54.785Z,5.20
2022-08-18T10:31:24.142Z,5.56
2022-08-18T10:34:24.688Z,5.91
2022-08-18T10:37:01.003Z,5.72
2022-08-18T10:39:47.151Z,5.52
2022-08-18T10:42:30.856Z,5.19
2022-08-18T10:45:30.195Z,5.87
2022-08-18T10:48:26.698Z,6.23
2022-08-18T10:51:27.468Z,7.10
2022-08-18T10:54:13.072Z,6.43
2022-08-18T10:56:57.607Z,6.39
2022-08-18T10:59:48.968Z,6.44
2022-08-18T11:05:43.052Z,5.89
2022-08-18T11:08:20.282Z,7.76
2022-08-18T11:11:27.744Z,9.01
2022-08-18T11:14:25.384Z,10.60
2022-08-18T11:17:08.447Z,12.41
2022-08-18T11:19:42.031Z,13.51
2022-08-18T11:22:35.696Z,15.03
2022-08-18T11:25:25.109Z,16.24
2022-08-18T11:27:56.523Z,16.94
2022-08-18T11:30:35.339Z,17.20
2022-08-18T11:33:05.872Z,18.17
2022-08-18T11:35:51.913Z,19.13
2022-08-18T11:38:22.287Z,19.66
2022-08-18T11:41:11.655Z,19.68
2022-08-18T11:43:43.229Z,20.49
2022-08-18T11:46:29.747Z,20.60
2022-08-18T11:49:01.765Z,21.83
2022-08-18T11:51:33.960Z,22.24
2022-08-18T11:54:15.510Z,22.35
2022-08-18T11:56:44.413Z,22.69
2022-08-18T11:59:53.030Z,23.38
2022-08-18T12:02:20.255Z,23.32
2022-08-18T12:04:53.940Z,23.42
2022-08-18T12:07:57.315Z,23.92
2022-08-18T12:10:29.264Z,24.66
2022-08-18T12:13:00.644Z,24.63
2022-08-18T12:15:44.434Z,24.56
2022-08-18T12:21:06.354Z,25.03
2022-08-18T12:26:38.001Z,25.63
2022-08-18T12:29:08.799Z,25.86
2022-08-18T12:31:42.619Z,25.64
2022-08-18T12:34:24.894Z,26.02
2022-08-18T12:37:01.250Z,25.63
2022-08-18T12:39:31.255Z,26.04
2022-08-18T12:41:59.816Z,25.48
2022-08-18T12:44:27.672Z,25.74
2022-08-18T12:46:56.087Z,26.61
2022-08-18T12:49:25.838Z,26.19
2022-08-18T12:51:55.784Z,25.90
2022-08-18T12:54:23.401Z,26.64
2022-08-18T12:56:58.914Z,26.93
2022-08-18T12:59:32.486Z,27.14
2022-08-18T13:02:08.040Z,27.27
2022-08-18T13:04:36.746Z,27.45
2022-08-18T13:07:05.969Z,27.35
2022-08-18T13:09:52.495Z,26.74
2022-08-18T13:12:24.084Z,26.81
2022-08-18T13:14:55.232Z,27.08
2022-08-18T13:17:32.861Z,27.10
2022-08-18T13:20:09.407Z,26.82
2022-08-18T13:22:40.311Z,27.47
2022-08-18T13:25:12.936Z,26.52
2022-08-18T13:27:59.786Z,26.62
2022-08-18T13:30:32.389Z,27.13
2022-08-18T13:33:05.426Z,26.30
2022-08-18T13:35:54.157Z,26.94
2022-08-18T13:38:25.968Z,27.52
2022-08-18T13:40:59.485Z,27.87
2022-08-18T13:43:34.521Z,28.46
2022-08-18T13:46:04.058Z,28.37
2022-08-18T13:48:32.426Z,28.29
2022-08-18T13:51:01.925Z,28.26
2022-08-18T13:53:31.954Z,28.56
2022-08-18T13:55:59.761Z,28.32
2022-08-18T13:58:29.289Z,28.22
2022-08-18T14:03:54.503Z,27.99
2022-08-18T14:06:23.663Z,28.60
2022-08-18T14:08:53.661Z,28.33
2022-08-18T14:11:32.993Z,28.71
2022-08-18T14:14:02.203Z,28.58
2022-08-18T14:16:30.818Z,28.67
2022-08-18T14:19:17.751Z,28.87
2022-08-18T14:22:11.619Z,28.88
2022-08-18T14:25:00.655Z,29.20
2022-08-18T14:27:35.192Z,29.49
2022-08-18T14:30:11.450Z,29.66
2022-08-18T14:32:59.933Z,30.01
2022-08-18T14:36:04.175Z,30.32
2022-08-18T14:38:16.167Z,30.34
2022-08-18T14:40:45.571Z,30.29
2022-08-18T14:43:15.797Z,30.14
2022-08-18T14:45:48.756Z,30.67
2022-08-18T14:48:27.486Z,30.77
2022-08-18T14:50:59.721Z,31.30
2022-08-18T14:53:34.431Z,31.17
2022-08-18T14:56:02.495Z,30.95
2022-08-18T14:58:33.011Z,31.65
2022-08-18T15:01:10.372Z,32.09
2022-08-18T15:03:39.393Z,32.59
2022-08-18T15:06:08.673Z,32.39
2022-08-18T15:08:47.058Z,32.98
2022-08-18T15:11:14.672Z,33.20
2022-08-18T15:13:45.427Z,33.14
2022-08-18T15:16:16.300Z,32.97
2022-08-18T15:18:46.344Z,33.38
2022-08-18T15:21:35.374Z,33.20
2022-08-18T15:24:26.778Z,34.02
2022-08-18T15:27:03.291Z,33.98
2022-08-18T15:29:34.670Z,34.39
2022-08-18T15:32:06.149Z,34.54
2022-08-18T15:34:46.143Z,34.72
2022-08-18T15:37:19.322Z,34.79
2022-08-18T15:39:51.829Z,35.12
2022-08-18T15:42:24.008Z,35.39
2022-08-18T15:44:53.690Z,35.29
2022-08-18T15:47:25.111Z,35.66
2022-08-18T15:49:54.682Z,35.50
2022-08-18T15:52:25.993Z,35.57
2022-08-18T15:54:58.297Z,35.75
2022-08-18T15:57:38.965Z,35.82
2022-08-18T16:00:12.099Z,35.65
2022-08-18T16:02:48.550Z,36.13
2022-08-18T16:05:22.842Z,36.19
2022-08-18T16:07:56.356Z,37.07
2022-08-18T16:10:28.985Z,37.08
2022-08-18T16:12:56.960Z,36.62
2022-08-18T16:15:26.370Z,37.32
2022-08-18T16:17:55.573Z,36.91
2022-08-18T16:20:24.148Z,36.98
2022-08-18T16:22:53.460Z,36.97
2022-08-18T16:25:21.763Z,37.50
2022-08-18T16:27:49.122Z,37.50
2022-08-18T16:30:23.792Z,37.62
2022-08-18T16:32:52.371Z,37.64
2022-08-18T16:35:21.578Z,37.59
2022-08-18T16:37:49.807Z,37.45
2022-08-18T16:40:19.255Z,37.79
2022-08-18T16:42:48.044Z,37.88
2022-08-18T16:45:21.989Z,38.04
2022-08-18T16:47:49.445Z,38.31
2022-08-18T16:50:20.429Z,38.25
2022-08-18T16:52:48.106Z,38.59
2022-08-18T16:55:15.373Z,38.57
2022-08-18T16:58:03.479Z,39.05
2022-08-18T17:00:55.006Z,39.37
2022-08-18T17:03:42.972Z,39.67
2022-08-18T17:06:15.548Z,40.34
2022-08-18T17:08:44.859Z,40.56
2022-08-18T17:11:17.627Z,41.31
2022-08-18T17:13:48.003Z,41.40
2022-08-18T17:16:17.968Z,41.38
2022-08-18T17:18:46.212Z,41.79
2022-08-18T17:21:20.133Z,41.96
2022-08-18T17:23:48.599Z,42.79
2022-08-18T17:27:25.548Z,43.07
2022-08-18T17:30:00.629Z,43.72
2022-08-18T17:32:48.809Z,43.92
2022-08-18T17:35:34.657Z,44.31
2022-08-18T17:38:15.220Z,44.71
2022-08-18T17:40:53.082Z,45.00
2022-08-18T17:43:29.131Z,45.53
2022-08-18T17:46:05.388Z,45.87
2022-08-18T17:48:44.477Z,45.93
2022-08-18T17:51:34.957Z,47.20
2022-08-18T17:54:23.481Z,47.02
2022-08-18T17:57:08.676Z,48.00
2022-08-18T17:59:54.902Z,49.32
2022-08-18T18:02:30.705Z,49.32
2022-08-18T18:05:05.550Z,49.77
2022-08-18T18:07:50.140Z,50.00
2022-08-18T18:11:02.187Z,50.29
2022-08-18T18:13:32.736Z,50.98
2022-08-18T18:16:35.557Z,51.50
2022-08-18T18:19:12.566Z,51.67
2022-08-18T18:21:53.383Z,51.90
2022-08-18T18:24:34.711Z,51.70
2022-08-18T18:27:10.545Z,52.18
2022-08-18T18:29:39.967Z,52.48
2022-08-18T18:32:38.918Z,52.75
2022-08-18T18:35:49.992Z,53.19
2022-08-18T18:38:36.604Z,53.63
2022-08-18T18:41:28.187Z,53.31
2022-08-18T18:44:12.336Z,53.61
2022-08-18T18:47:12.128Z,53.98
2022-08-18T18:49:58.559Z,54.03
2022-08-18T18:52:32.680Z,54.91
2022-08-18T18:55:14.872Z,55.00
2022-08-18T18:58:03.541Z,55.57
2022-08-18T19:00:54.128Z,55.96
2022-08-18T19:03:53.233Z,56.69
2022-08-18T19:06:41.251Z,57.19
2022-08-18T19:09:50.299Z,57.81
2022-08-18T19:12:29.804Z,57.83
2022-08-18T19:15:16.364Z,58.14
2022-08-18T19:18:03.369Z,58.55
2022-08-18T19:20:42.495Z,58.33
2022-08-18T19:23:50.187Z,58.41
2022-08-18T19:26:28.429Z,59.34
2022-08-18T19:29:13.434Z,58.64
2022-08-18T19:31:54.489Z,58.36
2022-08-18T19:34:31.093Z,58.45
2022-08-18T19:37:18.271Z,58.46
2022-08-18T19:40:36.748Z,58.92
2022-08-18T19:43:40.565Z,58.98
2022-08-18T19:46:52.714Z,59.29
2022-08-18T19:49:36.052Z,59.51
2022-08-18T19:52:46.281Z,59.60
2022-08-18T19:55:35.600Z,59.67
2022-08-18T19:58:49.185Z,59.95
2022-08-18T20:01:53.080Z,59.89
2022-08-18T20:04:53.283Z,59.91
2022-08-18T20:07:55.616Z,60.23
2022-08-18T20:10:53.168Z,60.59
2022-08-18T20:13:32.531Z,60.23
2022-08-18T20:16:25.114Z,60.27
2022-08-18T20:19:44.547Z,60.49
2022-08-18T20:22:24.320Z,60.48
2022-08-18T20:25:33.537Z,60.99
2022-08-18T20:28:00.795Z,60.78
2022-08-18T20:30:58.541Z,61.06
2022-08-18T20:33:26.114Z,61.20
2022-08-18T20:36:27.381Z,61.30
2022-08-18T20:38:59.644Z,61.55
2022-08-18T20:41:40.953Z,61.89
2022-08-18T20:44:29.207Z,61.97
2022-08-18T20:47:36.957Z,61.68
2022-08-18T20:51:03.504Z,62.09
2022-08-18T20:54:04.559Z,62.06
2022-08-18T20:56:48.546Z,62.10
2022-08-18T20:59:32.570Z,62.16
2022-08-18T21:02:26.488Z,62.12
2022-08-18T21:05:00.262Z,62.03
2022-08-18T21:07:38.018Z,62.12
2022-08-18T21:10:25.494Z,62.38
2022-08-18T21:12:57.921Z,62.11
2022-08-18T21:15:38.221Z,62.30
2022-08-18T21:18:23.806Z,62.50
2022-08-18T21:20:56.382Z,62.77
2022-08-18T21:23:40.579Z,63.26
2022-08-18T21:26:16.313Z,63.11
2022-08-18T21:28:49.707Z,63.03
2022-08-18T21:31:44.185Z,63.28
2022-08-18T21:34:41.736Z,63.58
2022-08-18T21:37:16.155Z,63.25
2022-08-18T21:39:54.461Z,63.18
2022-08-18T21:42:37.225Z,63.45
2022-08-18T21:45:05.288Z,63.73
2022-08-18T21:47:35.729Z,64.08
2022-08-18T21:50:17.231Z,64.26
2022-08-18T21:53:16.102Z,64.56
2022-08-18T21:55:50.191Z,64.25
2022-08-18T21:58:34.016Z,64.53
2022-08-18T22:01:23.583Z,64.91
2022-08-18T22:03:55.145Z,65.04
2022-08-18T22:06:31.128Z,65.33
2022-08-18T22:09:24.174Z,65.53
2022-08-18T22:12:53.690Z,66.06
2022-08-18T22:15:23.761Z,65.82
2022-08-18T22:17:59.816Z,65.83
2022-08-18T22:20:46.921Z,66.06
2022-08-18T22:23:32.604Z,66.18
2022-08-18T22:26:22.485Z,66.23
2022-08-18T22:29:34.987Z,67.08
2022-08-18T22:32:04.177Z,66.78
2022-08-18T22:34:34.475Z,66.97
2022-08-18T22:37:15.485Z,67.35
2022-08-18T22:39:54.789Z,66.93
2022-08-18T22:42:27.184Z,67.29
2022-08-18T22:44:59.078Z,67.51
2022-08-18T22:47:30.275Z,67.98
2022-08-18T22:50:01.859Z,67.84
2022-08-18T22:52:44.222Z,67.97
2022-08-18T22:55:20.860Z,67.99
2022-08-18T22:57:54.348Z,68.29
2022-08-18T23:00:25.225Z,68.34
2022-08-18T23:02:54.988Z,68.20
2022-08-18T23:05:23.360Z,68.11
2022-08-18T23:07:51.176Z,68.18
2022-08-18T23:10:19.287Z,68.35
2022-08-18T23:12:48.819Z,68.45
2022-08-18T23:15:19.186Z,68.75
2022-08-18T23:17:46.579Z,68.82
2022-08-18T23:20:20.266Z,68.92
2022-08-18T23:22:54.003Z,68.99
2022-08-18T23:25:21.247Z,69.11
2022-08-18T23:27:48.514Z,68.78
2022-08-18T23:30:15.980Z,68.90
2022-08-18T23:32:43.762Z,69.23
2022-08-18T23:35:11.138Z,69.22
2022-08-18T23:37:40.029Z,69.14
2022-08-18T23:40:15.771Z,69.30
2022-08-18T23:42:43.354Z,69.57
2022-08-18T23:45:11.342Z,69.47
2022-08-18T23:47:38.660Z,69.68
2022-08-18T23:50:07.003Z,70.09
2022-08-18T23:52:34.217Z,69.74
2022-08-18T23:55:14.473Z,70.10
2022-08-18T23:57:42.041Z,70.24
